createdAt,value
2022-12-13T00:01:54.859Z,79.13
2022-12-13T00:04:25.016Z,78.98
2022-12-13T00:06:54.215Z,78.53
2022-12-13T00:09:23.403Z,78.62
2022-12-13T00:11:52.308Z,78.66
2022-12-13T00:14:20.826Z,78.76
2022-12-13T00:16:49.782Z,78.66
2022-12-13T00:19:20.383Z,78.44
2022-12-13T00:21:48.387Z,78.46
2022-12-13T00:24:16.285Z,78.50
2022-12-13T00:26:44.932Z,78.35
2022-12-13T00:29:12.982Z,78.25
2022-12-13T00:32:00.431Z,78.40
2022-12-13T00:34:29.417Z,78.26
2022-12-13T00:37:00.640Z,78.24
2022-12-13T00:39:28.661Z,78.32
2022-12-13T00:41:57.283Z,78.44
2022-12-13T00:44:25.787Z,78.31
2022-12-13T00:46:53.923Z,78.27
2022-12-13T00:49:21.838Z,78.14
2022-12-13T00:51:49.874Z,78.24
2022-12-13T00:54:18.615Z,78.13
2022-12-13T00:56:46.617Z,77.89
2022-12-13T00:59:15.781Z,78.16
2022-12-13T01:01:44.214Z,78.28
2022-12-13T01:04:12.837Z,78.11
2022-12-13T01:06:45.674Z,78.11
2022-12-13T01:09:20.204Z,78.31
2022-12-13T01:11:49.264Z,78.32
2022-12-13T01:14:18.301Z,78.23
2022-12-13T01:16:46.233Z,78.40
2022-12-13T01:19:14.171Z,78.32
2022-12-13T01:21:42.037Z,78.37
2022-12-13T01:24:10.647Z,78.28
2022-12-13T01:26:38.571Z,78.31
2022-12-13T01:29:06.661Z,78.38
2022-12-13T01:31:34.543Z,78.50
2022-12-13T01:34:10.459Z,78.45
2022-12-13T01:36:43.493Z,78.39
2022-12-13T01:39:15.350Z,78.40
2022-12-13T01:41:50.422Z,78.47
2022-12-13T01:44:55.870Z,78.42
2022-12-13T01:47:46.748Z,78.25
2022-12-13T01:50:32.488Z,78.24
2022-12-13T01:53:01.190Z,77.92
2022-12-13T01:55:34.650Z,77.93
2022-12-13T01:58:12.039Z,78.22
2022-12-13T02:00:41.583Z,78.13
2022-12-13T02:03:21.315Z,78.33
2022-12-13T02:06:17.730Z,78.34
2022-12-13T02:08:46.880Z,78.25
2022-12-13T02:11:15.691Z,78.40
2022-12-13T02:13:43.483Z,78.49
2022-12-13T02:16:31.189Z,78.38
2022-12-13T02:19:38.453Z,78.37
2022-12-13T02:22:27.644Z,78.44
2022-12-13T02:25:18.935Z,78.33
2022-12-13T02:28:30.254Z,78.31
2022-12-13T02:31:14.794Z,78.37
2022-12-13T02:34:01.028Z,78.26
2022-12-13T02:36:36.670Z,78.39
2022-12-13T02:39:32.732Z,78.60
2022-12-13T02:42:21.406Z,78.60
2022-12-13T02:45:20.573Z,78.53
2022-12-13T02:47:54.674Z,78.49
2022-12-13T02:50:23.343Z,78.53
2022-12-13T02:52:52.400Z,78.49
2022-12-13T02:55:23.946Z,78.53
2022-12-13T02:57:54.621Z,78.52
2022-12-13T03:00:30.426Z,78.55
2022-12-13T03:03:20.132Z,78.40
2022-12-13T03:06:15.924Z,78.38
2022-12-13T03:09:08.958Z,78.48
2022-12-13T03:12:12.592Z,78.49
2022-12-13T03:14:59.007Z,78.47
2022-12-13T03:17:31.572Z,78.58
2022-12-13T03:19:59.440Z,78.59
2022-12-13T03:22:27.287Z,78.66
2022-12-13T03:24:55.225Z,78.47
2022-12-13T03:27:23.132Z,78.52
2022-12-13T03:29:50.941Z,78.62
2022-12-13T03:32:18.822Z,78.70
2022-12-13T03:34:50.819Z,78.51
2022-12-13T03:37:28.752Z,78.46
2022-12-13T03:39:57.400Z,78.45
2022-12-13T03:42:25.871Z,78.59
2022-12-13T03:44:53.792Z,78.54
2022-12-13T03:47:21.630Z,78.31
2022-12-13T03:49:54.247Z,78.44
2022-12-13T03:52:22.266Z,78.54
2022-12-13T03:54:50.099Z,78.59
2022-12-13T03:57:17.997Z,78.71
2022-12-13T03:59:45.858Z,78.56
2022-12-13T04:02:13.868Z,78.49
2022-12-13T04:04:58.416Z,78.48
2022-12-13T04:07:34.354Z,78.51
2022-12-13T04:10:03.908Z,78.41
2022-12-13T04:13:10.985Z,78.40
2022-12-13T04:15:38.966Z,78.46
2022-12-13T04:18:07.232Z,78.38
2022-12-13T04:20:35.047Z,78.29
2022-12-13T04:23:09.977Z,78.34
2022-12-13T04:25:39.495Z,78.25
2022-12-13T04:28:08.257Z,78.10
2022-12-13T04:30:36.874Z,78.24
2022-12-13T04:33:04.720Z,78.25
2022-12-13T04:35:32.606Z,78.23
2022-12-13T04:38:00.505Z,78.24
2022-12-13T04:40:28.377Z,78.28
2022-12-13T04:42:56.266Z,78.20
2022-12-13T04:45:24.494Z,78.09
2022-12-13T04:47:52.424Z,78.28
2022-12-13T04:50:20.321Z,78.23
2022-12-13T04:52:48.194Z,78.22
2022-12-13T04:55:16.302Z,78.00
2022-12-13T04:57:44.462Z,78.10
2022-12-13T05:00:13.570Z,78.02
2022-12-13T05:02:42.036Z,77.96
2022-12-13T05:05:10.933Z,77.79
2022-12-13T05:07:42.616Z,77.89
2022-12-13T05:10:11.613Z,77.80
2022-12-13T05:12:39.544Z,77.91
2022-12-13T05:15:08.263Z,77.89
2022-12-13T05:17:36.107Z,77.85
2022-12-13T05:20:04.420Z,77.86
2022-12-13T05:22:32.352Z,77.82
2022-12-13T05:25:00.179Z,77.77
2022-12-13T05:27:27.992Z,77.66
2022-12-13T05:30:04.948Z,77.68
2022-12-13T05:32:42.650Z,77.66
2022-12-13T05:35:13.992Z,77.50
2022-12-13T05:37:42.411Z,77.53
2022-12-13T05:40:10.490Z,77.43
2022-12-13T05:42:39.232Z,77.05
2022-12-13T05:45:08.117Z,76.72
2022-12-13T05:47:35.948Z,76.82
2022-12-13T05:50:04.565Z,76.82
2022-12-13T05:52:32.412Z,76.78
2022-12-13T05:55:01.042Z,76.58
2022-12-13T05:57:29.568Z,76.56
2022-12-13T05:59:57.756Z,76.43
2022-12-13T06:07:24.466Z,76.39
2022-12-13T06:09:52.268Z,76.20
2022-12-13T06:12:43.285Z,76.26
2022-12-13T06:15:21.536Z,76.08
2022-12-13T06:17:50.677Z,75.96
2022-12-13T06:20:23.176Z,75.87
2022-12-13T06:22:53.246Z,75.79
2022-12-13T06:25:29.989Z,76.04
2022-12-13T06:28:01.362Z,75.92
2022-12-13T06:30:30.884Z,75.84
2022-12-13T06:32:58.973Z,76.02
2022-12-13T06:35:28.360Z,75.96
2022-12-13T06:38:01.340Z,75.94
2022-12-13T06:40:30.706Z,75.82
2022-12-13T06:42:58.614Z,75.69
2022-12-13T06:45:26.783Z,75.74
2022-12-13T06:47:56.076Z,75.69
2022-12-13T06:50:23.974Z,75.66
2022-12-13T06:52:51.840Z,75.64
2022-12-13T06:55:23.986Z,75.68
2022-12-13T06:57:52.028Z,75.61
2022-12-13T07:00:21.860Z,75.59
2022-12-13T07:02:55.368Z,75.62
2022-12-13T07:05:25.082Z,75.71
2022-12-13T07:07:53.475Z,75.73
2022-12-13T07:10:23.100Z,75.65
2022-12-13T07:12:51.015Z,75.53
2022-12-13T07:15:18.826Z,75.51
2022-12-13T07:17:50.722Z,75.48
2022-12-13T07:20:20.413Z,75.47
2022-12-13T07:22:58.336Z,75.38
2022-12-13T07:25:29.247Z,75.31
2022-12-13T07:28:01.217Z,75.27
2022-12-13T07:30:40.998Z,75.36
2022-12-13T07:33:09.790Z,75.14
2022-12-13T07:35:37.972Z,75.32
2022-12-13T07:38:08.744Z,74.97
2022-12-13T07:40:38.219Z,75.03
2022-12-13T07:43:06.946Z,75.11
2022-12-13T07:45:35.011Z,75.26
2022-12-13T07:48:07.018Z,75.25
2022-12-13T07:50:37.278Z,75.36
2022-12-13T07:53:08.148Z,75.29
2022-12-13T07:55:36.938Z,75.28
2022-12-13T07:58:13.316Z,75.34
2022-12-13T08:00:46.408Z,75.26
2022-12-13T08:03:25.691Z,75.18
2022-12-13T08:06:07.135Z,75.25
2022-12-13T08:08:35.898Z,75.06
2022-12-13T08:11:11.759Z,75.29
2022-12-13T08:13:41.086Z,76.39
2022-12-13T08:16:28.353Z,78.00
2022-12-13T08:19:03.119Z,77.80
2022-12-13T08:21:55.014Z,79.23
2022-12-13T08:24:26.124Z,78.17
2022-12-13T08:27:01.439Z,76.99
2022-12-13T08:29:33.215Z,76.53
2022-12-13T08:32:09.660Z,76.30
2022-12-13T08:34:38.809Z,74.41
2022-12-13T08:37:07.007Z,73.67
2022-12-13T08:39:37.019Z,73.64
2022-12-13T08:42:15.447Z,73.60
2022-12-13T08:44:46.732Z,73.68
2022-12-13T08:47:24.256Z,73.64
2022-12-13T08:50:04.066Z,73.58
2022-12-13T08:52:39.197Z,73.51
2022-12-13T08:55:13.591Z,73.62
2022-12-13T08:57:43.301Z,73.47
2022-12-13T09:00:17.030Z,73.58
2022-12-13T09:02:45.349Z,73.65
2022-12-13T09:05:33.847Z,73.36
2022-12-13T09:08:22.913Z,73.32
2022-12-13T09:11:11.205Z,73.34
2022-12-13T09:13:50.424Z,73.30
2022-12-13T09:16:24.523Z,73.36
2022-12-13T09:18:55.155Z,73.45
2022-12-13T09:21:31.252Z,73.17
2022-12-13T09:24:01.804Z,73.26
2022-12-13T09:26:38.484Z,73.15
2022-12-13T09:29:10.807Z,73.01
2022-12-13T09:31:40.571Z,72.85
2022-12-13T09:34:10.642Z,72.93
2022-12-13T09:36:38.968Z,73.00
2022-12-13T09:39:06.869Z,72.87
2022-12-13T09:41:40.813Z,72.91
2022-12-13T09:44:31.959Z,73.03
2022-12-13T09:47:13.814Z,72.89
2022-12-13T09:49:52.041Z,72.83
2022-12-13T09:52:24.749Z,72.70
2022-12-13T09:54:56.908Z,72.83
2022-12-13T09:57:34.279Z,72.83
2022-12-13T10:00:07.155Z,72.66
2022-12-13T10:02:45.320Z,72.33
2022-12-13T10:05:22.634Z,72.23
2022-12-13T10:07:55.390Z,72.25
2022-12-13T10:10:23.975Z,72.21
2022-12-13T10:13:00.270Z,72.20
2022-12-13T10:15:30.694Z,71.95
2022-12-13T10:18:03.157Z,72.23
2022-12-13T10:20:32.897Z,72.46
2022-12-13T10:23:52.488Z,72.27
2022-12-13T10:25:54.758Z,72.14
2022-12-13T10:28:33.438Z,72.01
2022-12-13T10:31:02.206Z,71.80
2022-12-13T10:33:31.671Z,72.02
2022-12-13T10:36:08.913Z,72.05
2022-12-13T10:38:46.587Z,71.65
2022-12-13T10:41:31.490Z,71.64
2022-12-13T10:44:22.884Z,71.58
2022-12-13T10:47:10.902Z,71.75
2022-12-13T10:49:59.065Z,71.79
2022-12-13T10:52:32.187Z,71.59
2022-12-13T10:55:23.246Z,71.47
2022-12-13T10:57:54.132Z,71.62
2022-12-13T11:00:37.886Z,71.37
2022-12-13T11:03:07.518Z,71.21
2022-12-13T11:05:38.130Z,71.27
2022-12-13T11:08:16.420Z,71.03
2022-12-13T11:10:44.646Z,70.72
2022-12-13T11:13:36.809Z,70.75
2022-12-13T11:16:35.476Z,71.09
2022-12-13T11:19:15.786Z,71.03
2022-12-13T11:21:48.580Z,70.77
2022-12-13T11:24:24.368Z,70.69
2022-12-13T11:26:58.831Z,70.76
2022-12-13T11:30:12.536Z,70.44
2022-12-13T11:33:01.747Z,70.61
2022-12-13T11:35:49.436Z,70.34
2022-12-13T11:38:59.313Z,70.27
2022-12-13T11:41:36.441Z,70.04
2022-12-13T11:44:13.648Z,70.07
2022-12-13T11:46:45.069Z,69.92
2022-12-13T11:49:20.687Z,69.83
2022-12-13T11:52:01.353Z,69.93
2022-12-13T11:54:38.144Z,69.93
2022-12-13T11:57:19.765Z,69.69
2022-12-13T11:59:53.594Z,69.66
2022-12-13T12:02:34.094Z,69.64
2022-12-13T12:05:28.447Z,69.61
2022-12-13T12:08:31.880Z,69.66
2022-12-13T12:11:19.246Z,69.45
2022-12-13T12:13:58.857Z,69.38
2022-12-13T12:16:49.609Z,69.23
2022-12-13T12:19:21.686Z,69.15
2022-12-13T12:22:15.556Z,69.19
2022-12-13T12:25:05.665Z,69.13
2022-12-13T12:27:48.396Z,69.26
2022-12-13T12:30:23.087Z,69.25
2022-12-13T12:32:54.948Z,69.02
2022-12-13T12:35:52.690Z,68.91
2022-12-13T12:38:23.922Z,68.91
2022-12-13T12:41:16.768Z,68.79
2022-12-13T12:43:54.601Z,68.71
2022-12-13T12:46:42.348Z,68.77
2022-12-13T12:50:03.021Z,68.54
2022-12-13T12:53:13.459Z,68.66
2022-12-13T12:56:10.909Z,68.53
2022-12-13T12:59:00.502Z,68.45
2022-12-13T13:02:03.777Z,68.58
2022-12-13T13:04:42.667Z,68.45
2022-12-13T13:07:28.796Z,68.48
2022-12-13T13:09:57.562Z,68.50
2022-12-13T13:12:30.472Z,68.40
2022-12-13T13:14:58.792Z,68.48
2022-12-13T13:17:26.557Z,68.23
2022-12-13T13:20:12.328Z,68.11
2022-12-13T13:22:43.305Z,68.14
2022-12-13T13:25:22.898Z,68.12
2022-12-13T13:27:51.308Z,68.13
2022-12-13T13:30:25.171Z,67.94
2022-12-13T13:32:55.666Z,68.07
2022-12-13T13:35:33.225Z,68.09
2022-12-13T13:38:16.849Z,68.04
2022-12-13T13:40:44.786Z,68.10
2022-12-13T13:43:12.830Z,67.80
2022-12-13T13:45:50.001Z,67.64
2022-12-13T13:48:46.050Z,67.85
2022-12-13T13:51:29.319Z,67.75
2022-12-13T13:54:22.475Z,67.64
2022-12-13T13:57:38.489Z,67.64
2022-12-13T14:00:17.933Z,67.88
2022-12-13T14:03:29.162Z,67.74
2022-12-13T14:06:26.506Z,67.66
2022-12-13T14:09:25.374Z,67.76
2022-12-13T14:12:23.885Z,67.74
2022-12-13T14:14:51.782Z,67.60
2022-12-13T14:18:00.816Z,67.63
2022-12-13T14:20:45.280Z,67.52
2022-12-13T14:23:48.389Z,67.53
2022-12-13T14:26:37.903Z,67.56
2022-12-13T14:29:16.186Z,67.38
2022-12-13T14:31:47.406Z,67.24
2022-12-13T14:34:30.064Z,67.44
2022-12-13T14:37:06.772Z,67.34
2022-12-13T14:39:34.760Z,67.25
2022-12-13T14:42:22.067Z,67.31
2022-12-13T14:44:50.629Z,67.22
2022-12-13T14:47:20.284Z,67.21
2022-12-13T14:49:53.830Z,67.16
2022-12-13T14:52:27.702Z,67.06
2022-12-13T14:54:58.859Z,67.25
2022-12-13T14:57:29.989Z,67.17
2022-12-13T14:59:59.938Z,67.09
2022-12-13T15:02:31.841Z,67.04
2022-12-13T15:05:03.882Z,67.15
2022-12-13T15:07:40.401Z,67.17
2022-12-13T15:10:31.810Z,67.25
2022-12-13T15:13:00.169Z,67.20
2022-12-13T15:15:32.904Z,67.14
2022-12-13T15:18:10.090Z,67.06
2022-12-13T15:20:41.898Z,67.00
2022-12-13T15:23:21.881Z,67.11
2022-12-13T15:26:28.425Z,67.06
2022-12-13T15:29:10.169Z,67.13
2022-12-13T15:31:40.580Z,67.15
2022-12-13T15:34:28.862Z,67.14
2022-12-13T15:37:30.435Z,67.17
2022-12-13T15:40:08.207Z,67.04
2022-12-13T15:42:39.146Z,67.15
2022-12-13T15:45:19.776Z,67.08
2022-12-13T15:47:49.163Z,67.11
2022-12-13T15:50:36.459Z,67.19
2022-12-13T15:53:21.651Z,67.29
2022-12-13T15:55:49.650Z,67.23
2022-12-13T15:58:35.146Z,67.22
2022-12-13T16:01:05.631Z,67.37
2022-12-13T16:03:45.378Z,67.40
2022-12-13T16:06:22.351Z,67.34
2022-12-13T16:08:54.296Z,67.33
2022-12-13T16:11:34.232Z,67.44
2022-12-13T16:14:30.636Z,67.33
2022-12-13T16:17:09.010Z,67.46
2022-12-13T16:19:37.031Z,67.32
2022-12-13T16:22:08.543Z,67.39
2022-12-13T16:24:37.582Z,67.44
2022-12-13T16:27:08.825Z,67.63
2022-12-13T16:29:36.970Z,67.47
2022-12-13T16:32:08.843Z,67.60
2022-12-13T16:34:37.915Z,67.63
2022-12-13T16:37:09.039Z,67.80
2022-12-13T16:39:54.521Z,67.65
2022-12-13T16:42:26.097Z,67.70
2022-12-13T16:45:17.846Z,67.79
2022-12-13T16:47:49.089Z,67.86
2022-12-13T16:50:19.979Z,67.66
2022-12-13T16:52:49.000Z,67.66
2022-12-13T16:55:17.460Z,67.60
2022-12-13T16:58:02.265Z,67.69
2022-12-13T17:00:30.447Z,67.69
2022-12-13T17:03:00.029Z,67.86
2022-12-13T17:05:29.517Z,67.91
2022-12-13T17:07:57.548Z,67.89
2022-12-13T17:10:26.323Z,67.98
2022-12-13T17:12:54.219Z,68.11
2022-12-13T17:15:22.132Z,67.94
2022-12-13T17:17:50.074Z,67.92
2022-12-13T17:20:18.478Z,68.12
2022-12-13T17:22:46.966Z,68.19
2022-12-13T17:25:15.196Z,68.21
2022-12-13T17:27:43.108Z,68.18
2022-12-13T17:30:20.453Z,68.17
2022-12-13T17:32:48.305Z,68.24
2022-12-13T17:35:18.500Z,68.34
2022-12-13T17:37:46.670Z,68.22
2022-12-13T17:40:16.862Z,68.26
2022-12-13T17:42:45.825Z,68.34
2022-12-13T17:45:13.968Z,68.30
2022-12-13T17:47:42.887Z,68.30
2022-12-13T17:50:10.743Z,68.37
2022-12-13T17:52:39.210Z,68.34
2022-12-13T17:55:11.228Z,68.26
2022-12-13T18:08:39.040Z,68.58
2022-12-13T18:13:56.560Z,68.41
2022-12-13T18:16:34.149Z,68.51
2022-12-13T18:19:07.158Z,68.61
2022-12-13T18:21:37.056Z,68.62
2022-12-13T18:24:09.586Z,68.53
2022-12-13T18:26:37.611Z,68.57
2022-12-13T18:29:05.622Z,68.60
2022-12-13T18:31:33.753Z,68.51
2022-12-13T18:34:01.726Z,68.49
2022-12-13T18:36:30.270Z,68.45
2022-12-13T18:38:58.652Z,68.65
2022-12-13T18:41:29.172Z,68.57
2022-12-13T18:44:02.719Z,68.49
2022-12-13T18:46:37.645Z,68.50
2022-12-13T18:49:06.732Z,68.69
2022-12-13T18:51:34.910Z,68.55
2022-12-13T18:54:03.034Z,68.60
2022-12-13T18:56:31.047Z,68.60
2022-12-13T18:58:59.749Z,68.55
2022-12-13T19:01:28.763Z,68.84
2022-12-13T19:03:57.479Z,68.74
2022-12-13T19:06:27.581Z,68.65
2022-12-13T19:08:57.936Z,68.84
2022-12-13T19:11:27.738Z,68.68
2022-12-13T19:13:58.235Z,68.61
2022-12-13T19:16:26.812Z,68.59
2022-12-13T19:18:55.041Z,68.51
2022-12-13T19:21:23.275Z,68.47
2022-12-13T19:23:56.954Z,68.55
2022-12-13T19:26:31.618Z,68.25
2022-12-13T19:28:59.728Z,68.22
2022-12-13T19:31:32.130Z,68.29
2022-12-13T19:34:02.571Z,68.29
2022-12-13T19:36:32.330Z,68.30
2022-12-13T19:39:01.005Z,68.36
2022-12-13T19:41:32.100Z,68.40
2022-12-13T19:44:04.494Z,68.55
2022-12-13T19:46:33.350Z,68.63
2022-12-13T19:49:01.473Z,68.57
2022-12-13T19:51:33.134Z,68.76
2022-12-13T19:54:04.384Z,68.75
2022-12-13T19:56:32.482Z,68.88
2022-12-13T19:59:01.293Z,69.00
2022-12-13T20:01:29.379Z,69.02
2022-12-13T20:03:59.711Z,69.12
2022-12-13T20:06:27.697Z,69.14
2022-12-13T20:08:55.742Z,69.14
2022-12-13T20:11:24.181Z,69.11
2022-12-13T20:13:55.265Z,69.26
2022-12-13T20:16:25.874Z,69.25
2022-12-13T20:18:57.742Z,69.38
2022-12-13T20:21:27.797Z,69.36
2022-12-13T20:23:56.646Z,69.31
2022-12-13T20:26:26.872Z,69.40
2022-12-13T20:28:55.777Z,69.41
2022-12-13T20:31:27.403Z,69.36
2022-12-13T20:33:56.911Z,69.49
2022-12-13T20:36:27.740Z,69.51
2022-12-13T20:38:57.647Z,69.46
2022-12-13T20:41:28.123Z,69.57
2022-12-13T20:43:59.224Z,69.51
2022-12-13T20:46:29.134Z,69.37
2022-12-13T20:49:00.141Z,69.31
2022-12-13T20:51:29.750Z,69.24
2022-12-13T20:53:58.596Z,69.10
2022-12-13T20:56:29.507Z,69.12
2022-12-13T20:58:58.067Z,69.01
2022-12-13T21:01:28.470Z,68.94
2022-12-13T21:04:00.246Z,68.98
2022-12-13T21:06:29.946Z,69.19
2022-12-13T21:09:05.305Z,69.09
2022-12-13T21:11:38.960Z,69.21
2022-12-13T21:14:16.680Z,69.22
2022-12-13T21:17:09.903Z,69.33
2022-12-13T21:19:40.327Z,69.42
2022-12-13T21:22:08.677Z,69.64
2022-12-13T21:24:36.733Z,69.64
2022-12-13T21:27:06.581Z,69.55
2022-12-13T21:29:34.494Z,69.60
2022-12-13T21:32:02.527Z,69.68
2022-12-13T21:34:30.525Z,69.55
2022-12-13T21:36:58.414Z,69.47
2022-12-13T21:39:29.777Z,69.64
2022-12-13T21:41:58.270Z,69.50
2022-12-13T21:44:26.303Z,69.42
2022-12-13T21:47:11.733Z,69.35
2022-12-13T21:49:41.132Z,69.47
2022-12-13T21:52:09.185Z,69.52
2022-12-13T21:54:37.102Z,69.59
2022-12-13T21:57:23.387Z,69.67
2022-12-13T21:59:51.481Z,69.81
2022-12-13T22:02:19.809Z,69.84
2022-12-13T22:04:49.574Z,69.78
2022-12-13T22:07:23.624Z,69.69
2022-12-13T22:09:53.228Z,69.65
2022-12-13T22:12:33.315Z,69.66
2022-12-13T22:15:01.769Z,69.72
2022-12-13T22:17:35.124Z,69.60
2022-12-13T22:20:06.890Z,69.61
2022-12-13T22:22:34.893Z,69.65
2022-12-13T22:25:03.050Z,69.59
2022-12-13T22:27:31.088Z,69.63
2022-12-13T22:29:59.758Z,69.45
2022-12-13T22:32:31.462Z,69.46
2022-12-13T22:34:59.427Z,69.45
2022-12-13T22:37:27.371Z,69.46
2022-12-13T22:39:55.351Z,69.46
2022-12-13T22:42:23.237Z,69.44
2022-12-13T22:44:51.141Z,69.41
2022-12-13T22:47:19.521Z,69.22
2022-12-13T22:49:48.681Z,69.22
2022-12-13T22:52:17.657Z,69.26
2022-12-13T22:54:45.879Z,69.31
2022-12-13T22:57:14.073Z,69.46
2022-12-13T22:59:42.036Z,69.50
2022-12-13T23:02:10.225Z,69.36
2022-12-13T23:04:39.401Z,69.41
2022-12-13T23:07:07.640Z,69.45
2022-12-13T23:09:35.726Z,69.32
2022-12-13T23:12:22.156Z,69.32
2022-12-13T23:14:51.439Z,69.47
2022-12-13T23:17:19.445Z,69.48
2022-12-13T23:19:51.500Z,69.33
2022-12-13T23:22:23.515Z,69.39
2022-12-13T23:24:52.774Z,69.50
2022-12-13T23:27:22.885Z,69.58
2022-12-13T23:29:50.882Z,69.63
2022-12-13T23:32:19.292Z,69.42
2022-12-13T23:34:47.368Z,69.28
2022-12-13T23:37:15.514Z,69.29
2022-12-13T23:39:43.454Z,69.29
2022-12-13T23:42:11.589Z,69.50
2022-12-13T23:44:39.536Z,69.36
2022-12-13T23:47:07.522Z,69.46
2022-12-13T23:49:35.444Z,69.33
2022-12-13T23:52:03.422Z,69.17
2022-12-13T23:54:31.264Z,69.30
2022-12-13T23:56:59.125Z,69.15
2022-12-13T23:59:27.928Z,69.24
